sensor_id;sensor_type;location;lat;lon;timestamp;pressure;altitude;pressure_sealevel;temperature;humidity
79144;BME280;68551;47.484;19.092;2023-05-23T00:02:16;100102.88;;;18.29;72.62
79144;BME280;68551;47.484;19.092;2023-05-23T00:05:21;100100.66;;;18.31;71.38
79144;BME280;68551;47.484;19.092;2023-05-23T00:08:24;100108.34;;;18.39;71.75
79144;BME280;68551;47.484;19.092;2023-05-23T00:11:27;100097.63;;;18.33;71.72
79144;BME280;68551;47.484;19.092;2023-05-23T00:14:30;100086.31;;;18.29;71.80
79144;BME280;68551;47.484;19.092;2023-05-23T00:17:35;100090.78;;;18.20;72.72
79144;BME280;68551;47.484;19.092;2023-05-23T00:20:43;100091.34;;;18.17;72.15
79144;BME280;68551;47.484;19.092;2023-05-23T00:23:49;100086.38;;;18.14;70.65
79144;BME280;68551;47.484;19.092;2023-05-23T00:26:54;100080.31;;;18.17;70.26
79144;BME280;68551;47.484;19.092;2023-05-23T00:29:57;100085.81;;;18.22;69.15
79144;BME280;68551;47.484;19.092;2023-05-23T00:33:03;100083.06;;;18.17;68.68
79144;BME280;68551;47.484;19.092;2023-05-23T00:36:13;100085.81;;;18.22;68.63
79144;BME280;68551;47.484;19.092;2023-05-23T00:39:18;100089.13;;;18.19;69.40
79144;BME280;68551;47.484;19.092;2023-05-23T00:42:22;100088.91;;;18.05;70.00
79144;BME280;68551;47.484;19.092;2023-05-23T00:45:24;100086.13;;;18.05;69.77
79144;BME280;68551;47.484;19.092;2023-05-23T00:48:27;100080.66;;;17.90;70.29
79144;BME280;68551;47.484;19.092;2023-05-23T00:51:32;100096.06;;;18.01;69.83
79144;BME280;68551;47.484;19.092;2023-05-23T00:54:40;100090.00;;;17.99;69.99
79144;BME280;68551;47.484;19.092;2023-05-23T00:57:46;100089.22;;;17.94;70.10
79144;BME280;68551;47.484;19.092;2023-05-23T01:00:49;100092.53;;;17.91;70.19
79144;BME280;68551;47.484;19.092;2023-05-23T01:03:57;100073.25;;;17.81;70.56
79144;BME280;68551;47.484;19.092;2023-05-23T01:07:00;100085.94;;;17.82;70.58
79144;BME280;68551;47.484;19.092;2023-05-23T01:10:03;100082.09;;;17.73;71.21
79144;BME280;68551;47.484;19.092;2023-05-23T01:16:47;100088.41;;;17.73;71.47
79144;BME280;68551;47.484;19.092;2023-05-23T01:20:01;100083.75;;;17.68;71.34
79144;BME280;68551;47.484;19.092;2023-05-23T01:29:37;100082.13;;;17.67;72.76
79144;BME280;68551;47.484;19.092;2023-05-23T01:32:44;100087.59;;;17.62;72.83
79144;BME280;68551;47.484;19.092;2023-05-23T01:35:47;100088.16;;;17.64;71.49
79144;BME280;68551;47.484;19.092;2023-05-23T01:38:52;100083.72;;;17.58;71.47
79144;BME280;68551;47.484;19.092;2023-05-23T01:41:57;100070.25;;;17.52;71.47
79144;BME280;68551;47.484;19.092;2023-05-23T01:45:00;100083.47;;;17.50;72.12
79144;BME280;68551;47.484;19.092;2023-05-23T01:48:05;100072.16;;;17.41;72.32
79144;BME280;68551;47.484;19.092;2023-05-23T01:51:15;100080.19;;;17.38;71.86
79144;BME280;68551;47.484;19.092;2023-05-23T01:54:20;100084.03;;;17.36;71.39
79144;BME280;68551;47.484;19.092;2023-05-23T01:57:23;100072.19;;;17.36;71.81
79144;BME280;68551;47.484;19.092;2023-05-23T02:00:27;100071.66;;;17.39;71.27
79144;BME280;68551;47.484;19.092;2023-05-23T02:03:32;100076.59;;;17.32;72.70
79144;BME280;68551;47.484;19.092;2023-05-23T02:06:34;100068.31;;;17.27;72.57
79144;BME280;68551;47.484;19.092;2023-05-23T02:09:39;100065.28;;;17.28;72.63
79144;BME280;68551;47.484;19.092;2023-05-23T02:12:42;100060.63;;;17.19;73.42
79144;BME280;68551;47.484;19.092;2023-05-23T02:15:44;100068.34;;;17.17;73.20
79144;BME280;68551;47.484;19.092;2023-05-23T02:18:49;100066.44;;;17.12;73.85
79144;BME280;68551;47.484;19.092;2023-05-23T02:21:54;100062.84;;;17.07;74.15
79144;BME280;68551;47.484;19.092;2023-05-23T02:24:59;100046.56;;;17.00;73.64
79144;BME280;68551;47.484;19.092;2023-05-23T02:28:06;100064.50;;;17.08;74.67
79144;BME280;68551;47.484;19.092;2023-05-23T02:31:09;100065.59;;;17.07;75.17
79144;BME280;68551;47.484;19.092;2023-05-23T02:34:17;100062.81;;;17.01;74.20
79144;BME280;68551;47.484;19.092;2023-05-23T02:37:19;100064.47;;;16.92;74.19
79144;BME280;68551;47.484;19.092;2023-05-23T02:40:26;100068.59;;;17.00;73.77
79144;BME280;68551;47.484;19.092;2023-05-23T02:43:29;100070.53;;;16.99;73.54
79144;BME280;68551;47.484;19.092;2023-05-23T02:46:32;100057.88;;;16.93;73.65
79144;BME280;68551;47.484;19.092;2023-05-23T02:49:37;100060.63;;;16.93;73.33
79144;BME280;68551;47.484;19.092;2023-05-23T02:52:40;100054.00;;;16.89;73.78
79144;BME280;68551;47.484;19.092;2023-05-23T02:55:45;100043.81;;;16.85;73.46
79144;BME280;68551;47.484;19.092;2023-05-23T02:58:55;100047.94;;;16.87;73.00
79144;BME280;68551;47.484;19.092;2023-05-23T03:01:59;100055.13;;;16.93;73.15
79144;BME280;68551;47.484;19.092;2023-05-23T03:05:02;100061.75;;;16.97;73.03
79144;BME280;68551;47.484;19.092;2023-05-23T03:08:05;100056.75;;;16.99;72.55
79144;BME280;68551;47.484;19.092;2023-05-23T03:11:08;100044.66;;;16.90;72.80
79144;BME280;68551;47.484;19.092;2023-05-23T03:14:13;100056.19;;;16.87;73.33
79144;BME280;68551;47.484;19.092;2023-05-23T03:17:16;100052.09;;;16.90;72.85
79144;BME280;68551;47.484;19.092;2023-05-23T03:20:20;100062.25;;;16.89;74.20
79144;BME280;68551;47.484;19.092;2023-05-23T03:23:23;100068.31;;;16.91;74.03
79144;BME280;68551;47.484;19.092;2023-05-23T03:26:25;100055.66;;;16.85;72.89
79144;BME280;68551;47.484;19.092;2023-05-23T03:29:33;100063.38;;;16.93;72.48
79144;BME280;68551;47.484;19.092;2023-05-23T03:32:35;100064.47;;;16.92;73.29
79144;BME280;68551;47.484;19.092;2023-05-23T03:35:41;100063.94;;;16.95;72.62
79144;BME280;68551;47.484;19.092;2023-05-23T03:38:50;100063.09;;;16.95;72.68
79144;BME280;68551;47.484;19.092;2023-05-23T03:41:55;100058.97;;;17.13;72.25
79144;BME280;68551;47.484;19.092;2023-05-23T03:44:59;100063.13;;;17.10;72.11
79144;BME280;68551;47.484;19.092;2023-05-23T03:48:08;100059.53;;;17.05;72.60
79144;BME280;68551;47.484;19.092;2023-05-23T03:51:10;100060.09;;;16.96;73.26
79144;BME280;68551;47.484;19.092;2023-05-23T03:54:17;100056.75;;;16.99;72.31
79144;BME280;68551;47.484;19.092;2023-05-23T03:57:20;100054.28;;;16.93;72.49
79144;BME280;68551;47.484;19.092;2023-05-23T04:00:25;100050.72;;;16.92;72.20
79144;BME280;68551;47.484;19.092;2023-05-23T04:03:29;100065.03;;;17.05;72.30
79144;BME280;68551;47.484;19.092;2023-05-23T04:06:36;100058.41;;;17.00;71.70
79144;BME280;68551;47.484;19.092;2023-05-23T04:09:39;100062.28;;;17.10;71.91
79144;BME280;68551;47.484;19.092;2023-05-23T04:12:43;100061.72;;;17.13;71.13
79144;BME280;68551;47.484;19.092;2023-05-23T04:15:49;100066.97;;;17.19;71.62
79144;BME280;68551;47.484;19.092;2023-05-23T04:18:54;100059.53;;;17.25;71.30
79144;BME280;68551;47.484;19.092;2023-05-23T04:22:03;100063.38;;;17.54;69.75
79144;BME280;68551;47.484;19.092;2023-05-23T04:25:05;100069.44;;;17.66;70.25
79144;BME280;68551;47.484;19.092;2023-05-23T04:28:13;100057.78;;;17.85;68.59
79144;BME280;68551;47.484;19.092;2023-05-23T04:31:21;100060.00;;;17.93;67.77
79144;BME280;68551;47.484;19.092;2023-05-23T04:34:26;100062.72;;;17.98;67.62
79144;BME280;68551;47.484;19.092;2023-05-23T04:37:31;100060.44;;;18.15;67.54
79144;BME280;68551;47.484;19.092;2023-05-23T04:40:35;100050.50;;;18.24;65.58
79144;BME280;68551;47.484;19.092;2023-05-23T04:43:46;100061.50;;;18.29;65.15
79144;BME280;68551;47.484;19.092;2023-05-23T04:46:53;100068.66;;;18.35;65.93
79144;BME280;68551;47.484;19.092;2023-05-23T04:50:03;100059.97;;;18.57;64.61
79144;BME280;68551;47.484;19.092;2023-05-23T04:53:06;100065.78;;;18.61;65.30
79144;BME280;68551;47.484;19.092;2023-05-23T04:56:10;100061.31;;;18.70;65.14
79144;BME280;68551;47.484;19.092;2023-05-23T04:59:14;100054.84;;;18.85;63.76
79144;BME280;68551;47.484;19.092;2023-05-23T05:02:18;100060.50;;;19.08;63.21
79144;BME280;68551;47.484;19.092;2023-05-23T05:05:23;100056.28;;;19.16;63.15
79144;BME280;68551;47.484;19.092;2023-05-23T05:08:26;100057.50;;;19.34;62.67
79144;BME280;68551;47.484;19.092;2023-05-23T05:11:29;100058.94;;;19.60;62.07
79144;BME280;68551;47.484;19.092;2023-05-23T05:14:31;100057.84;;;19.85;61.41
79144;BME280;68551;47.484;19.092;2023-05-23T05:17:36;100054.31;;;20.03;60.58
79144;BME280;68551;47.484;19.092;2023-05-23T05:20:42;100049.72;;;20.41;60.09
79144;BME280;68551;47.484;19.092;2023-05-23T05:23:52;100055.94;;;20.71;58.67
79144;BME280;68551;47.484;19.092;2023-05-23T05:26:55;100060.19;;;21.01;58.58
79144;BME280;68551;47.484;19.092;2023-05-23T05:30:00;100051.94;;;21.14;56.40
79144;BME280;68551;47.484;19.092;2023-05-23T05:33:10;100058.16;;;21.25;56.60
79144;BME280;68551;47.484;19.092;2023-05-23T05:36:16;100064.59;;;21.53;56.14
79144;BME280;68551;47.484;19.092;2023-05-23T05:39:22;100050.34;;;21.46;55.55
79144;BME280;68551;47.484;19.092;2023-05-23T05:42:28;100044.91;;;21.54;55.30
79144;BME280;68551;47.484;19.092;2023-05-23T05:45:35;100060.34;;;21.74;54.40
79144;BME280;68551;47.484;19.092;2023-05-23T05:48:37;100051.34;;;22.23;54.21
79144;BME280;68551;47.484;19.092;2023-05-23T05:51:43;100046.03;;;22.63;53.05
79144;BME280;68551;47.484;19.092;2023-05-23T05:54:49;100044.38;;;22.62;52.74
79144;BME280;68551;47.484;19.092;2023-05-23T05:57:51;100039.09;;;22.74;52.35
79144;BME280;68551;47.484;19.092;2023-05-23T06:01:00;100043.09;;;22.95;51.31
79144;BME280;68551;47.484;19.092;2023-05-23T06:04:02;100039.38;;;23.00;50.52
79144;BME280;68551;47.484;19.092;2023-05-23T06:07:05;100044.41;;;23.43;49.88
79144;BME280;68551;47.484;19.092;2023-05-23T06:10:10;100044.88;;;23.45;50.24
79144;BME280;68551;47.484;19.092;2023-05-23T06:13:18;100045.03;;;23.40;48.75
79144;BME280;68551;47.484;19.092;2023-05-23T06:16:25;100044.91;;;23.00;50.24
79144;BME280;68551;47.484;19.092;2023-05-23T06:19:31;100035.31;;;23.28;49.57
79144;BME280;68551;47.484;19.092;2023-05-23T06:22:35;100043.59;;;23.73;48.10
79144;BME280;68551;47.484;19.092;2023-05-23T06:25:38;100048.69;;;24.11;47.43
79144;BME280;68551;47.484;19.092;2023-05-23T06:28:43;100049.47;;;24.42;46.92
79144;BME280;68551;47.484;19.092;2023-05-23T06:31:50;100018.00;;;24.50;46.28
79144;BME280;68551;47.484;19.092;2023-05-23T06:34:55;100033.13;;;24.84;45.43
79144;BME280;68551;47.484;19.092;2023-05-23T06:38:00;100041.75;;;25.68;44.15
79144;BME280;68551;47.484;19.092;2023-05-23T06:41:03;100036.91;;;25.86;42.85
79144;BME280;68551;47.484;19.092;2023-05-23T06:44:09;100046.22;;;26.37;43.03
79144;BME280;68551;47.484;19.092;2023-05-23T06:47:17;100036.28;;;26.48;41.12
79144;BME280;68551;47.484;19.092;2023-05-23T06:50:23;100037.13;;;25.55;43.35
79144;BME280;68551;47.484;19.092;2023-05-23T06:53:26;100033.63;;;26.22;43.16
79144;BME280;68551;47.484;19.092;2023-05-23T06:56:31;100032.47;;;26.73;41.64
79144;BME280;68551;47.484;19.092;2023-05-23T06:59:38;100025.19;;;27.02;40.70
79144;BME280;68551;47.484;19.092;2023-05-23T07:02:40;100012.47;;;27.25;41.25
79144;BME280;68551;47.484;19.092;2023-05-23T07:05:46;100021.47;;;27.64;40.80
79144;BME280;68551;47.484;19.092;2023-05-23T07:08:53;100019.03;;;27.86;40.25
79144;BME280;68551;47.484;19.092;2023-05-23T07:11:56;100016.25;;;27.99;39.09
79144;BME280;68551;47.484;19.092;2023-05-23T07:14:59;100009.00;;;27.98;39.18
79144;BME280;68551;47.484;19.092;2023-05-23T07:18:03;100010.66;;;28.47;38.27
79144;BME280;68551;47.484;19.092;2023-05-23T07:21:07;100010.00;;;28.66;38.42
79144;BME280;68551;47.484;19.092;2023-05-23T07:24:12;100014.03;;;29.05;37.60
79144;BME280;68551;47.484;19.092;2023-05-23T07:27:17;100005.56;;;28.89;38.44
79144;BME280;68551;47.484;19.092;2023-05-23T07:30:20;100003.16;;;29.04;36.24
79144;BME280;68551;47.484;19.092;2023-05-23T07:33:26;100006.81;;;29.20;36.43
79144;BME280;68551;47.484;19.092;2023-05-23T07:36:33;100012.38;;;29.60;35.49
79144;BME280;68551;47.484;19.092;2023-05-23T07:39:37;100004.09;;;29.67;35.47
79144;BME280;68551;47.484;19.092;2023-05-23T07:42:40;99993.75;;;30.34;33.94
79144;BME280;68551;47.484;19.092;2023-05-23T07:45:42;100002.44;;;30.80;32.22
79144;BME280;68551;47.484;19.092;2023-05-23T07:48:48;99989.44;;;31.10;32.31
79144;BME280;68551;47.484;19.092;2023-05-23T07:51:57;99989.47;;;30.94;32.60
79144;BME280;68551;47.484;19.092;2023-05-23T07:55:07;99990.41;;;31.83;33.63
79144;BME280;68551;47.484;19.092;2023-05-23T07:58:10;99988.59;;;31.29;32.22
79144;BME280;68551;47.484;19.092;2023-05-23T08:01:12;99991.41;;;30.20;33.29
79144;BME280;68551;47.484;19.092;2023-05-23T08:04:43;99980.97;;;31.52;32.12
79144;BME280;68551;47.484;19.092;2023-05-23T08:07:47;99975.16;;;31.87;30.72
79144;BME280;68551;47.484;19.092;2023-05-23T08:10:50;99964.78;;;32.18;30.27
79144;BME280;68551;47.484;19.092;2023-05-23T08:13:58;99970.41;;;32.18;30.50
79144;BME280;68551;47.484;19.092;2023-05-23T08:17:23;99973.00;;;32.26;31.87
79144;BME280;68551;47.484;19.092;2023-05-23T08:20:31;99976.91;;;31.73;31.53
79144;BME280;68551;47.484;19.092;2023-05-23T08:23:34;99984.69;;;32.55;30.23
79144;BME280;68551;47.484;19.092;2023-05-23T08:26:36;99980.63;;;33.49;28.41
79144;BME280;68551;47.484;19.092;2023-05-23T08:29:44;99982.94;;;33.77;28.94
79144;BME280;68551;47.484;19.092;2023-05-23T08:32:52;99975.22;;;34.22;28.71
79144;BME280;68551;47.484;19.092;2023-05-23T08:35:54;99983.97;;;34.68;27.41
79144;BME280;68551;47.484;19.092;2023-05-23T08:38:57;99977.22;;;34.83;28.06
79144;BME280;68551;47.484;19.092;2023-05-23T08:42:03;99967.97;;;34.97;28.27
79144;BME280;68551;47.484;19.092;2023-05-23T08:45:08;99978.03;;;33.74;28.22
79144;BME280;68551;47.484;19.092;2023-05-23T08:48:12;99970.63;;;33.59;29.63
79144;BME280;68551;47.484;19.092;2023-05-23T08:51:24;99979.81;;;33.12;29.12
79144;BME280;68551;47.484;19.092;2023-05-23T08:54:29;99968.34;;;32.97;30.15
79144;BME280;68551;47.484;19.092;2023-05-23T08:57:32;99969.09;;;33.28;29.54
79144;BME280;68551;47.484;19.092;2023-05-23T09:00:53;99976.63;;;33.17;29.45
79144;BME280;68551;47.484;19.092;2023-05-23T09:03:59;99983.19;;;33.24;30.01
79144;BME280;68551;47.484;19.092;2023-05-23T09:07:27;99973.97;;;33.31;29.28
79144;BME280;68551;47.484;19.092;2023-05-23T09:10:31;99959.81;;;32.64;29.49
79144;BME280;68551;47.484;19.092;2023-05-23T09:13:37;99980.16;;;32.77;29.04
79144;BME280;68551;47.484;19.092;2023-05-23T09:16:46;99978.75;;;32.63;29.61
79144;BME280;68551;47.484;19.092;2023-05-23T09:19:52;99973.00;;;32.83;29.27
79144;BME280;68551;47.484;19.092;2023-05-23T09:23:15;99975.78;;;32.79;30.45
79144;BME280;68551;47.484;19.092;2023-05-23T09:26:18;99975.66;;;32.72;29.97
79144;BME280;68551;47.484;19.092;2023-05-23T09:29:20;99967.56;;;32.40;30.42
79144;BME280;68551;47.484;19.092;2023-05-23T09:32:23;99970.53;;;31.53;31.62
79144;BME280;68551;47.484;19.092;2023-05-23T09:35:27;99972.38;;;31.45;32.73
79144;BME280;68551;47.484;19.092;2023-05-23T09:38:41;99967.00;;;31.59;33.43
79144;BME280;68551;47.484;19.092;2023-05-23T09:41:47;99965.94;;;31.45;32.25
79144;BME280;68551;47.484;19.092;2023-05-23T09:44:49;99971.03;;;30.78;33.73
79144;BME280;68551;47.484;19.092;2023-05-23T09:47:52;99970.22;;;30.07;34.83
79144;BME280;68551;47.484;19.092;2023-05-23T09:50:57;99966.03;;;30.52;34.50
79144;BME280;68551;47.484;19.092;2023-05-23T09:54:04;99952.16;;;30.97;33.78
79144;BME280;68551;47.484;19.092;2023-05-23T09:57:08;99961.94;;;31.23;32.45
79144;BME280;68551;47.484;19.092;2023-05-23T10:00:11;99956.16;;;31.16;32.41
79144;BME280;68551;47.484;19.092;2023-05-23T10:03:15;99964.16;;;30.94;33.68
79144;BME280;68551;47.484;19.092;2023-05-23T10:06:58;99956.47;;;31.11;33.23
79144;BME280;68551;47.484;19.092;2023-05-23T10:10:07;99948.66;;;31.04;31.96
79144;BME280;68551;47.484;19.092;2023-05-23T10:13:11;99949.03;;;31.22;31.44
79144;BME280;68551;47.484;19.092;2023-05-23T10:16:24;99948.38;;;31.28;31.74
79144;BME280;68551;47.484;19.092;2023-05-23T10:22:44;99946.94;;;30.42;32.61
79144;BME280;68551;47.484;19.092;2023-05-23T10:25:47;99946.56;;;30.43;33.82
79144;BME280;68551;47.484;19.092;2023-05-23T10:28:50;99937.78;;;30.64;34.76
79144;BME280;68551;47.484;19.092;2023-05-23T10:31:54;99930.78;;;30.74;33.58
79144;BME280;68551;47.484;19.092;2023-05-23T10:38:54;99932.44;;;30.40;33.49
79144;BME280;68551;47.484;19.092;2023-05-23T10:42:03;99940.53;;;29.75;35.08
79144;BME280;68551;47.484;19.092;2023-05-23T10:45:22;99931.25;;;29.90;36.70
79144;BME280;68551;47.484;19.092;2023-05-23T10:51:40;99926.19;;;29.80;34.25
79144;BME280;68551;47.484;19.092;2023-05-23T10:54:51;99927.19;;;29.40;34.60
79144;BME280;68551;47.484;19.092;2023-05-23T10:58:27;99921.31;;;29.45;35.12
79144;BME280;68551;47.484;19.092;2023-05-23T11:01:30;99914.44;;;29.58;34.61
79144;BME280;68551;47.484;19.092;2023-05-23T11:04:35;99918.75;;;29.87;34.89
79144;BME280;68551;47.484;19.092;2023-05-23T11:07:39;99909.78;;;29.82;34.50
79144;BME280;68551;47.484;19.092;2023-05-23T11:11:01;99910.81;;;29.74;34.70
79144;BME280;68551;47.484;19.092;2023-05-23T11:14:03;99891.78;;;29.51;34.95
79144;BME280;68551;47.484;19.092;2023-05-23T11:17:17;99904.19;;;29.50;35.99
79144;BME280;68551;47.484;19.092;2023-05-23T11:20:23;99888.31;;;29.26;35.77
79144;BME280;68551;47.484;19.092;2023-05-23T11:23:41;99891.78;;;29.51;35.88
79144;BME280;68551;47.484;19.092;2023-05-23T11:26:56;99892.94;;;29.03;35.67
79144;BME280;68551;47.484;19.092;2023-05-23T11:30:13;99896.69;;;28.95;35.44
79144;BME280;68551;47.484;19.092;2023-05-23T11:33:18;99880.78;;;28.71;35.13
79144;BME280;68551;47.484;19.092;2023-05-23T11:36:24;99891.50;;;28.81;35.95
79144;BME280;68551;47.484;19.092;2023-05-23T11:39:26;99863.84;;;28.96;35.45
79144;BME280;68551;47.484;19.092;2023-05-23T11:42:29;99871.28;;;29.04;35.31
79144;BME280;68551;47.484;19.092;2023-05-23T11:45:35;99870.63;;;28.95;35.13
79144;BME280;68551;47.484;19.092;2023-05-23T11:48:49;99851.00;;;28.95;35.82
79144;BME280;68551;47.484;19.092;2023-05-23T11:52:01;99864.69;;;29.12;34.53
79144;BME280;68551;47.484;19.092;2023-05-23T11:55:05;99853.47;;;29.12;36.05
79144;BME280;68551;47.484;19.092;2023-05-23T11:58:08;99852.38;;;29.01;35.34
79144;BME280;68551;47.484;19.092;2023-05-23T12:01:13;99844.09;;;28.76;35.44
79144;BME280;68551;47.484;19.092;2023-05-23T12:04:15;99833.56;;;28.73;36.18
79144;BME280;68551;47.484;19.092;2023-05-23T12:07:22;99833.13;;;28.71;36.43
79144;BME280;68551;47.484;19.092;2023-05-23T12:10:29;99833.19;;;28.59;38.09
79144;BME280;68551;47.484;19.092;2023-05-23T12:13:31;99826.06;;;28.62;37.84
79144;BME280;68551;47.484;19.092;2023-05-23T12:16:36;99817.47;;;28.70;37.14
79144;BME280;68551;47.484;19.092;2023-05-23T12:19:46;99806.97;;;28.67;36.51
79144;BME280;68551;47.484;19.092;2023-05-23T12:22:53;99816.84;;;28.77;36.68
79144;BME280;68551;47.484;19.092;2023-05-23T12:25:58;99807.16;;;28.74;36.00
79144;BME280;68551;47.484;19.092;2023-05-23T12:29:06;99808.06;;;28.78;36.08
79144;BME280;68551;47.484;19.092;2023-05-23T12:32:13;99800.13;;;28.80;35.50
79144;BME280;68551;47.484;19.092;2023-05-23T12:35:17;99793.22;;;28.62;36.78
79144;BME280;68551;47.484;19.092;2023-05-23T12:38:22;99794.47;;;28.49;36.67
79144;BME280;68551;47.484;19.092;2023-05-23T12:41:32;99787.22;;;28.48;38.22
79144;BME280;68551;47.484;19.092;2023-05-23T12:44:40;99789.97;;;28.60;36.71
79144;BME280;68551;47.484;19.092;2023-05-23T12:47:43;99775.81;;;28.41;35.26
79144;BME280;68551;47.484;19.092;2023-05-23T12:50:48;99783.84;;;28.42;36.03
79144;BME280;68551;47.484;19.092;2023-05-23T12:53:54;99783.97;;;28.46;35.26
79144;BME280;68551;47.484;19.092;2023-05-23T12:56:59;99776.38;;;28.46;34.92
79144;BME280;68551;47.484;19.092;2023-05-23T13:00:01;99785.59;;;28.47;36.41
79144;BME280;68551;47.484;19.092;2023-05-23T13:03:04;99775.56;;;28.46;35.80
79144;BME280;68551;47.484;19.092;2023-05-23T13:06:10;99766.88;;;28.51;36.44
79144;BME280;68551;47.484;19.092;2023-05-23T13:09:15;99767.88;;;28.58;34.94
79144;BME280;68551;47.484;19.092;2023-05-23T13:12:17;99746.44;;;28.50;35.58
79144;BME280;68551;47.484;19.092;2023-05-23T13:15:22;99760.19;;;28.55;34.59
79144;BME280;68551;47.484;19.092;2023-05-23T13:18:27;99753.22;;;28.49;34.87
79144;BME280;68551;47.484;19.092;2023-05-23T13:21:32;99756.81;;;28.50;34.00
79144;BME280;68551;47.484;19.092;2023-05-23T13:24:37;99760.81;;;28.49;33.56
79144;BME280;68551;47.484;19.092;2023-05-23T13:27:40;99754.41;;;28.48;33.55
79144;BME280;68551;47.484;19.092;2023-05-23T13:30:42;99754.03;;;28.34;33.90
79144;BME280;68551;47.484;19.092;2023-05-23T13:33:48;99747.59;;;28.34;35.97
79144;BME280;68551;47.484;19.092;2023-05-23T13:36:53;99748.13;;;28.39;36.32
79144;BME280;68551;47.484;19.092;2023-05-23T13:39:56;99748.78;;;28.33;36.29
79144;BME280;68551;47.484;19.092;2023-05-23T13:43:01;99746.25;;;28.43;35.24
79144;BME280;68551;47.484;19.092;2023-05-23T13:46:03;99747.78;;;28.41;36.13
79144;BME280;68551;47.484;19.092;2023-05-23T13:49:08;99741.88;;;28.30;34.98
79144;BME280;68551;47.484;19.092;2023-05-23T13:52:13;99738.72;;;28.32;35.87
79144;BME280;68551;47.484;19.092;2023-05-23T13:55:16;99738.66;;;28.44;34.40
79144;BME280;68551;47.484;19.092;2023-05-23T13:58:23;99727.78;;;28.27;34.24
79144;BME280;68551;47.484;19.092;2023-05-23T14:01:27;99730.03;;;28.37;33.65
79144;BME280;68551;47.484;19.092;2023-05-23T14:04:34;99730.78;;;28.34;33.65
79144;BME280;68551;47.484;19.092;2023-05-23T14:07:38;99729.16;;;28.33;33.94
79144;BME280;68551;47.484;19.092;2023-05-23T14:10:42;99736.38;;;28.34;35.04
79144;BME280;68551;47.484;19.092;2023-05-23T14:13:47;99728.25;;;28.44;36.00
79144;BME280;68551;47.484;19.092;2023-05-23T14:16:52;99725.34;;;28.41;35.59
79144;BME280;68551;47.484;19.092;2023-05-23T14:19:54;99727.63;;;28.35;35.63
79144;BME280;68551;47.484;19.092;2023-05-23T14:22:57;99723.25;;;28.38;35.42
79144;BME280;68551;47.484;19.092;2023-05-23T14:26:04;99709.47;;;28.45;34.75
79144;BME280;68551;47.484;19.092;2023-05-23T14:29:09;99701.41;;;28.43;34.20
79144;BME280;68551;47.484;19.092;2023-05-23T14:32:11;99711.97;;;28.50;34.45
79144;BME280;68551;47.484;19.092;2023-05-23T14:35:16;99716.16;;;28.56;34.84
79144;BME280;68551;47.484;19.092;2023-05-23T14:38:19;99718.25;;;28.59;35.41
79144;BME280;68551;47.484;19.092;2023-05-23T14:41:21;99722.84;;;28.67;34.80
79144;BME280;68551;47.484;19.092;2023-05-23T14:44:24;99722.13;;;28.70;35.48
79144;BME280;68551;47.484;19.092;2023-05-23T14:47:28;99726.00;;;28.66;34.65
79144;BME280;68551;47.484;19.092;2023-05-23T14:50:31;99711.63;;;28.51;34.28
79144;BME280;68551;47.484;19.092;2023-05-23T14:53:34;99722.69;;;28.60;33.75
79144;BME280;68551;47.484;19.092;2023-05-23T14:56:36;99720.13;;;28.55;34.59
79144;BME280;68551;47.484;19.092;2023-05-23T14:59:39;99715.53;;;28.47;34.40
79144;BME280;68551;47.484;19.092;2023-05-23T15:02:41;99713.72;;;28.54;34.28
79144;BME280;68551;47.484;19.092;2023-05-23T15:05:45;99725.38;;;28.56;34.19
79144;BME280;68551;47.484;19.092;2023-05-23T15:08:55;99712.63;;;28.59;35.14
79144;BME280;68551;47.484;19.092;2023-05-23T15:11:58;99709.72;;;28.55;34.72
79144;BME280;68551;47.484;19.092;2023-05-23T15:15:00;99728.50;;;28.39;34.39
79144;BME280;68551;47.484;19.092;2023-05-23T15:18:08;99721.63;;;28.37;35.00
79144;BME280;68551;47.484;19.092;2023-05-23T15:21:14;99705.22;;;28.35;34.65
79144;BME280;68551;47.484;19.092;2023-05-23T15:24:17;99721.72;;;28.25;34.61
79144;BME280;68551;47.484;19.092;2023-05-23T15:27:20;99719.94;;;28.32;34.05
79144;BME280;68551;47.484;19.092;2023-05-23T15:30:25;99715.38;;;28.28;33.83
79144;BME280;68551;47.484;19.092;2023-05-23T15:33:27;99720.28;;;28.31;34.70
79144;BME280;68551;47.484;19.092;2023-05-23T15:36:32;99729.16;;;28.33;34.03
79144;BME280;68551;47.484;19.092;2023-05-23T15:39:34;99717.84;;;28.29;34.73
79144;BME280;68551;47.484;19.092;2023-05-23T15:42:39;99721.81;;;28.28;34.53
79144;BME280;68551;47.484;19.092;2023-05-23T15:45:48;99709.81;;;28.15;34.46
79144;BME280;68551;47.484;19.092;2023-05-23T15:48:55;99715.59;;;28.07;35.74
79144;BME280;68551;47.484;19.092;2023-05-23T15:52:14;99706.63;;;28.01;35.33
79144;BME280;68551;47.484;19.092;2023-05-23T15:55:17;99687.78;;;27.86;35.32
79144;BME280;68551;47.484;19.092;2023-05-23T15:58:19;99699.00;;;27.86;35.19
79144;BME280;68551;47.484;19.092;2023-05-23T16:01:22;99706.13;;;27.83;36.11
79144;BME280;68551;47.484;19.092;2023-05-23T16:04:27;99706.63;;;27.73;35.08
79144;BME280;68551;47.484;19.092;2023-05-23T16:07:29;99712.38;;;27.65;35.24
79144;BME280;68551;47.484;19.092;2023-05-23T16:10:31;99710.41;;;27.65;34.81
79144;BME280;68551;47.484;19.092;2023-05-23T16:13:34;99717.72;;;27.70;34.56
79144;BME280;68551;47.484;19.092;2023-05-23T16:16:41;99732.19;;;26.50;38.03
79144;BME280;68551;47.484;19.092;2023-05-23T16:19:45;99730.69;;;25.66;40.33
79144;BME280;68551;47.484;19.092;2023-05-23T16:22:50;99726.72;;;25.67;40.63
79144;BME280;68551;47.484;19.092;2023-05-23T16:25:56;99723.47;;;25.65;40.82